createdAt,value
2019-06-01T00:00:26.242Z,8.90
2019-06-01T00:01:33.552Z,8.98
2019-06-01T00:02:38.777Z,10.65
2019-06-01T00:03:46.480Z,11.45
2019-06-01T00:04:51.768Z,8.85
2019-06-01T00:05:57.547Z,10.23
2019-06-01T00:07:02.657Z,8.90
2019-06-01T00:08:08.346Z,8.75
2019-06-01T00:09:13.501Z,8.45
2019-06-01T00:10:19.118Z,8.25
2019-06-01T00:11:24.239Z,8.65
2019-06-01T00:12:29.982Z,8.80
2019-06-01T00:13:35.175Z,8.60
2019-06-01T00:14:41.685Z,8.25
2019-06-01T00:15:48.178Z,8.83
2019-06-01T00:16:54.240Z,7.53
2019-06-01T00:18:00.867Z,8.05
2019-06-01T00:19:06.601Z,7.17
2019-06-01T00:20:12.044Z,7.15
2019-06-01T00:21:17.724Z,7.50
2019-06-01T00:22:22.831Z,7.03
2019-06-01T00:23:28.517Z,7.33
2019-06-01T00:24:33.619Z,7.42
2019-06-01T00:25:40.431Z,7.12
2019-06-01T00:26:46.103Z,7.75
2019-06-01T00:27:52.805Z,8.13
2019-06-01T00:28:58.077Z,7.65
2019-06-01T00:30:03.879Z,7.20
2019-06-01T00:31:09.029Z,7.47
2019-06-01T00:32:14.922Z,7.30
2019-06-01T00:33:20.134Z,8.03
2019-06-01T00:34:25.818Z,7.67
2019-06-01T00:35:31.053Z,7.58
2019-06-01T00:36:36.859Z,8.85
2019-06-01T00:37:42.013Z,8.55
2019-06-01T00:38:47.919Z,8.88
2019-06-01T00:39:54.196Z,10.30
2019-06-01T00:40:59.935Z,10.20
2019-06-01T00:42:05.181Z,9.58
2019-06-01T00:43:10.912Z,8.85
2019-06-01T00:44:16.030Z,8.80
2019-06-01T00:45:21.699Z,8.70
2019-06-01T00:46:27.978Z,8.40
2019-06-01T00:47:33.747Z,7.67
2019-06-01T00:48:38.777Z,7.40
2019-06-01T00:49:44.752Z,8.15
2019-06-01T00:50:51.005Z,8.48
2019-06-01T00:51:56.832Z,8.35
2019-06-01T00:53:01.874Z,8.75
2019-06-01T00:54:07.574Z,7.33
2019-06-01T00:55:12.797Z,9.03
2019-06-01T00:56:18.458Z,8.33
2019-06-01T00:57:23.576Z,8.90
2019-06-01T00:58:30.345Z,9.85
2019-06-01T00:59:35.450Z,9.50
2019-06-01T01:00:45.181Z,9.00
2019-06-01T01:01:47.904Z,8.73
2019-06-01T01:02:54.692Z,9.00
2019-06-01T01:03:59.780Z,8.88
2019-06-01T01:05:14.204Z,9.18
2019-06-01T01:06:19.492Z,9.30
2019-06-01T01:07:25.100Z,9.18
2019-06-01T01:08:30.267Z,8.33
2019-06-01T01:09:36.324Z,9.53
2019-06-01T01:10:41.379Z,8.73
2019-06-01T01:11:47.182Z,8.88
2019-06-01T01:13:10.380Z,8.13
2019-06-01T01:14:16.058Z,8.70
2019-06-01T01:15:21.302Z,9.25
2019-06-01T01:16:27.068Z,8.55
2019-06-01T01:17:32.149Z,8.80
2019-06-01T01:18:37.761Z,8.30
2019-06-01T01:19:43.017Z,8.15
2019-06-01T01:20:49.965Z,9.18
2019-06-01T01:21:56.483Z,8.35
2019-06-01T01:23:02.096Z,8.23
2019-06-01T01:24:07.221Z,8.50
2019-06-01T01:25:12.833Z,7.92
2019-06-01T01:26:17.985Z,8.28
2019-06-01T01:27:23.700Z,8.30
2019-06-01T01:28:28.873Z,7.90
2019-06-01T01:29:34.537Z,7.90
2019-06-01T01:30:39.659Z,7.65
2019-06-01T01:31:45.400Z,6.85
2019-06-01T01:32:51.728Z,7.37
2019-06-01T01:34:01.399Z,7.08
2019-06-01T01:35:06.870Z,7.67
2019-06-01T01:36:12.743Z,7.85
2019-06-01T01:37:20.039Z,8.53
2019-06-01T01:38:31.562Z,8.45
2019-06-01T01:39:39.918Z,7.47
2019-06-01T01:40:47.899Z,7.62
2019-06-01T01:41:54.167Z,7.92
2019-06-01T01:42:59.922Z,8.00
2019-06-01T01:44:05.325Z,7.53
2019-06-01T01:45:11.601Z,7.42
2019-06-01T01:46:17.754Z,7.58
2019-06-01T01:47:23.501Z,7.30
2019-06-01T01:48:29.685Z,7.72
2019-06-01T01:49:35.439Z,7.70
2019-06-01T01:50:40.545Z,7.85
2019-06-01T01:51:46.269Z,8.25
2019-06-01T01:52:52.652Z,7.37
2019-06-01T01:53:58.844Z,7.40
2019-06-01T01:55:04.485Z,7.65
2019-06-01T01:56:10.362Z,7.65
2019-06-01T01:57:15.404Z,6.95
2019-06-01T01:58:20.998Z,7.15
2019-06-01T01:59:26.150Z,8.00
2019-06-01T02:00:43.928Z,7.53
2019-06-01T02:01:50.308Z,6.87
2019-06-01T02:02:56.184Z,8.85
2019-06-01T02:04:01.214Z,7.20
2019-06-01T02:05:07.135Z,7.42
2019-06-01T02:06:12.266Z,6.83
2019-06-01T02:07:17.972Z,7.58
2019-06-01T02:08:23.528Z,7.30
2019-06-01T02:09:29.197Z,8.13
2019-06-01T02:10:34.328Z,7.97
2019-06-01T02:11:39.984Z,8.85
2019-06-01T02:12:45.049Z,8.50
2019-06-01T02:13:51.538Z,7.62
2019-06-01T02:14:57.690Z,8.18
2019-06-01T02:16:03.446Z,7.33
2019-06-01T02:17:08.532Z,8.18
2019-06-01T02:18:14.149Z,8.38
2019-06-01T02:19:19.226Z,8.68
2019-06-01T02:20:24.853Z,8.50
2019-06-01T02:21:29.894Z,9.00
2019-06-01T02:22:35.508Z,8.50
2019-06-01T02:23:40.556Z,8.30
2019-06-01T02:24:46.156Z,8.03
2019-06-01T02:25:52.883Z,8.15
2019-06-01T02:26:59.344Z,8.83
2019-06-01T02:28:04.774Z,7.20
2019-06-01T02:29:10.457Z,8.90
2019-06-01T02:30:17.215Z,8.63
2019-06-01T02:31:39.760Z,7.72
2019-06-01T02:32:29.720Z,8.90
2019-06-01T02:33:35.410Z,8.80
2019-06-01T02:34:40.409Z,7.72
2019-06-01T02:35:46.392Z,8.00
2019-06-01T02:36:51.555Z,10.25
2019-06-01T02:37:58.654Z,10.38
2019-06-01T02:39:05.531Z,10.85
2019-06-01T02:40:12.619Z,10.68
2019-06-01T02:41:17.829Z,9.95
2019-06-01T02:42:23.520Z,9.58
2019-06-01T02:43:28.636Z,8.95
2019-06-01T02:44:35.406Z,8.38
2019-06-01T02:45:40.530Z,8.20
2019-06-01T02:46:46.106Z,8.88
2019-06-01T02:47:51.211Z,8.05
2019-06-01T02:48:57.366Z,8.50
2019-06-01T02:50:04.471Z,7.72
2019-06-01T02:51:09.987Z,8.40
2019-06-01T02:52:15.017Z,8.55
2019-06-01T02:53:20.735Z,8.05
2019-06-01T02:54:25.818Z,7.72
2019-06-01T02:55:31.537Z,7.78
2019-06-01T02:56:36.716Z,8.23
2019-06-01T02:57:42.321Z,8.60
2019-06-01T02:58:47.464Z,7.83
2019-06-01T02:59:53.140Z,7.87
2019-06-01T03:01:37.494Z,7.70
2019-06-01T03:02:43.659Z,8.70
2019-06-01T03:03:49.073Z,8.53
2019-06-01T03:04:55.376Z,7.42
2019-06-01T03:06:03.486Z,7.55
2019-06-01T03:07:11.980Z,7.28
2019-06-01T03:08:19.130Z,6.40
2019-06-01T03:09:26.047Z,7.10
2019-06-01T03:10:31.521Z,7.00
2019-06-01T03:11:37.797Z,6.05
2019-06-01T03:12:46.334Z,7.28
2019-06-01T03:13:55.643Z,6.65
2019-06-01T03:15:02.665Z,6.53
2019-06-01T03:16:11.305Z,5.90
2019-06-01T03:17:17.726Z,6.05
2019-06-01T03:18:26.361Z,6.05
2019-06-01T03:19:33.737Z,6.70
2019-06-01T03:20:41.709Z,6.70
2019-06-01T03:21:49.982Z,6.65
2019-06-01T03:22:58.029Z,6.55
2019-06-01T03:24:09.540Z,6.95
2019-06-01T03:25:15.167Z,6.58
2019-06-01T03:26:23.026Z,7.00
2019-06-01T03:27:31.194Z,7.47
2019-06-01T03:28:40.961Z,7.80
2019-06-01T03:29:53.095Z,8.50
2019-06-01T03:30:58.180Z,7.53
2019-06-01T03:32:24.119Z,6.65
2019-06-01T03:33:10.815Z,7.25
2019-06-01T03:34:16.462Z,7.22
2019-06-01T03:35:21.584Z,7.50
2019-06-01T03:36:27.386Z,8.00
2019-06-01T03:37:32.617Z,8.33
2019-06-01T03:38:39.323Z,7.67
2019-06-01T03:39:44.440Z,7.20
2019-06-01T03:40:50.041Z,7.20
2019-06-01T03:41:55.087Z,7.72
2019-06-01T03:43:02.094Z,6.97
2019-06-01T03:44:08.516Z,7.60
2019-06-01T03:45:14.613Z,6.42
2019-06-01T03:46:19.742Z,6.75
2019-06-01T03:47:25.342Z,6.40
2019-06-01T03:48:30.426Z,6.95
2019-06-01T03:49:36.126Z,6.65
2019-06-01T03:50:41.260Z,5.65
2019-06-01T03:51:47.057Z,7.00
2019-06-01T03:52:52.136Z,6.80
2019-06-01T03:53:58.283Z,5.80
2019-06-01T03:55:03.717Z,5.25
2019-06-01T03:56:09.549Z,5.53
2019-06-01T03:57:14.794Z,5.17
2019-06-01T03:58:20.552Z,5.17
2019-06-01T03:59:25.762Z,5.12
2019-06-01T04:00:34.318Z,5.35
2019-06-01T04:01:39.587Z,4.62
2019-06-01T04:02:45.362Z,5.20
2019-06-01T04:03:50.634Z,3.90
2019-06-01T04:04:57.936Z,4.70
2019-06-01T04:06:03.309Z,5.15
2019-06-01T04:07:10.628Z,4.37
2019-06-01T04:08:16.025Z,4.42
2019-06-01T04:09:21.693Z,4.65
2019-06-01T04:10:26.839Z,3.65
2019-06-01T04:11:32.528Z,3.65
2019-06-01T04:12:37.621Z,3.58
2019-06-01T04:13:43.364Z,3.60
2019-06-01T04:14:48.457Z,4.30
2019-06-01T04:15:54.144Z,3.85
2019-06-01T04:16:59.245Z,4.42
2019-06-01T04:18:06.059Z,4.50
2019-06-01T04:19:12.202Z,3.52
2019-06-01T04:20:18.066Z,3.20
2019-06-01T04:21:23.214Z,4.08
2019-06-01T04:22:28.919Z,3.67
2019-06-01T04:23:36.375Z,3.90
2019-06-01T04:24:41.426Z,3.72
2019-06-01T04:25:46.552Z,3.40
2019-06-01T04:26:52.209Z,4.20
2019-06-01T04:27:57.314Z,3.85
2019-06-01T04:29:04.771Z,4.80
2019-06-01T04:30:11.490Z,4.33
2019-06-01T04:31:17.316Z,4.55
2019-06-01T04:32:22.480Z,4.40
2019-06-01T04:33:28.145Z,5.08
2019-06-01T04:34:35.729Z,3.83
2019-06-01T04:35:40.637Z,5.30
2019-06-01T04:36:45.848Z,4.28
2019-06-01T04:37:51.669Z,3.98
2019-06-01T04:38:56.798Z,4.22
2019-06-01T04:40:03.469Z,4.33
2019-06-01T04:41:09.784Z,3.50
2019-06-01T04:42:15.564Z,4.08
2019-06-01T04:43:20.734Z,3.80
2019-06-01T04:44:26.802Z,4.05
2019-06-01T04:45:31.850Z,3.58
2019-06-01T04:46:37.524Z,4.97
2019-06-01T04:47:42.650Z,4.72
2019-06-01T04:48:48.268Z,4.30
2019-06-01T04:49:53.362Z,4.60
2019-06-01T04:50:59.107Z,3.92
2019-06-01T04:52:04.649Z,4.15
2019-06-01T04:53:11.805Z,4.95
2019-06-01T04:54:17.226Z,4.80
2019-06-01T04:55:23.113Z,5.35
2019-06-01T04:56:28.219Z,3.92
2019-06-01T04:57:33.892Z,4.37
2019-06-01T04:58:38.968Z,4.10
2019-06-01T04:59:44.656Z,4.35
2019-06-01T05:00:49.728Z,3.85
2019-06-01T05:01:55.493Z,4.22
2019-06-01T05:03:05.203Z,3.55
2019-06-01T05:04:08.991Z,4.10
2019-06-01T05:05:15.471Z,4.00
2019-06-01T05:06:21.738Z,3.72
2019-06-01T05:07:26.759Z,3.35
2019-06-01T05:08:32.422Z,3.80
2019-06-01T05:09:37.436Z,3.87
2019-06-01T05:10:43.012Z,3.58
2019-06-01T05:11:48.076Z,3.72
2019-06-01T05:12:53.801Z,3.75
2019-06-01T05:13:58.788Z,3.75
2019-06-01T05:15:05.498Z,3.20
2019-06-01T05:16:12.960Z,3.52
2019-06-01T05:17:18.606Z,3.33
2019-06-01T05:18:23.687Z,3.40
2019-06-01T05:19:29.354Z,3.50
2019-06-01T05:20:34.609Z,2.70
2019-06-01T05:21:40.312Z,3.20
2019-06-01T05:22:45.408Z,3.30
2019-06-01T05:23:50.992Z,3.42
2019-06-01T05:24:56.048Z,2.87
2019-06-01T05:26:01.758Z,3.85
2019-06-01T05:27:06.960Z,3.77
2019-06-01T05:28:13.267Z,3.90
2019-06-01T05:29:18.391Z,3.77
2019-06-01T05:30:26.848Z,3.60
2019-06-01T05:31:31.862Z,3.33
2019-06-01T05:32:38.517Z,3.30
2019-06-01T05:33:43.552Z,3.27
2019-06-01T05:34:49.196Z,3.55
2019-06-01T05:35:54.316Z,3.37
2019-06-01T05:36:59.944Z,3.47
2019-06-01T05:38:05.087Z,3.72
2019-06-01T05:39:10.679Z,3.02
2019-06-01T05:40:16.626Z,3.00
2019-06-01T05:41:23.760Z,2.62
2019-06-01T05:42:29.943Z,3.05
2019-06-01T05:43:37.192Z,3.75
2019-06-01T05:44:42.263Z,3.40
2019-06-01T05:45:47.831Z,3.22
2019-06-01T05:46:52.924Z,3.00
2019-06-01T05:47:58.569Z,2.92
2019-06-01T05:49:03.621Z,3.20
2019-06-01T05:50:10.623Z,3.40
2019-06-01T05:51:18.214Z,2.95
2019-06-01T05:52:23.088Z,3.00
2019-06-01T05:53:28.249Z,3.37
2019-06-01T05:54:33.912Z,2.77
2019-06-01T05:55:39.020Z,2.42
2019-06-01T05:56:44.688Z,2.70
2019-06-01T05:57:49.863Z,2.22
2019-06-01T05:58:55.542Z,2.27
2019-06-01T06:00:00.597Z,2.80
2019-06-01T06:01:07.457Z,2.65
2019-06-01T06:02:13.203Z,2.60
2019-06-01T06:03:22.019Z,2.25
2019-06-01T06:04:25.712Z,2.33
2019-06-01T06:05:31.415Z,2.65
2019-06-01T06:06:36.414Z,2.80
2019-06-01T06:07:42.132Z,2.30
2019-06-01T06:08:47.205Z,2.50
2019-06-01T06:09:52.929Z,2.40
2019-06-01T06:10:58.012Z,2.35
2019-06-01T06:12:03.699Z,2.70
2019-06-01T06:13:09.455Z,2.27
2019-06-01T06:14:15.469Z,2.77
2019-06-01T06:15:21.787Z,2.10
2019-06-01T06:16:27.552Z,2.50
2019-06-01T06:17:32.609Z,2.30
2019-06-01T06:18:38.212Z,2.70
2019-06-01T06:19:44.503Z,3.10
2019-06-01T06:20:50.232Z,2.37
2019-06-01T06:21:58.362Z,2.10
2019-06-01T06:23:03.964Z,2.30
2019-06-01T06:24:09.097Z,2.00
2019-06-01T06:25:14.820Z,2.33
2019-06-01T06:26:22.361Z,2.50
2019-06-01T06:27:28.015Z,2.30
2019-06-01T06:28:33.156Z,1.70
2019-06-01T06:29:38.854Z,2.30
2019-06-01T06:30:44.577Z,2.55
2019-06-01T06:31:50.195Z,2.15
2019-06-01T06:32:55.365Z,2.45
2019-06-01T06:34:01.005Z,2.30
2019-06-01T06:35:06.191Z,2.50
2019-06-01T06:36:11.894Z,2.00
2019-06-01T06:37:17.661Z,2.33
2019-06-01T06:38:24.433Z,1.90
2019-06-01T06:39:29.534Z,2.40
2019-06-01T06:40:35.136Z,2.20
2019-06-01T06:41:40.221Z,2.10
2019-06-01T06:42:45.920Z,2.20
2019-06-01T06:43:51.287Z,2.23
2019-06-01T06:44:56.974Z,2.00
2019-06-01T06:46:03.093Z,2.00
2019-06-01T06:47:08.806Z,1.80
2019-06-01T06:48:15.003Z,2.13
2019-06-01T06:49:21.811Z,2.43
2019-06-01T06:50:26.888Z,2.60
2019-06-01T06:51:32.550Z,2.00
2019-06-01T06:52:37.648Z,2.40
2019-06-01T06:53:43.223Z,2.27
2019-06-01T06:54:48.271Z,1.90
2019-06-01T06:55:53.952Z,2.30
2019-06-01T06:56:59.140Z,2.60
2019-06-01T06:58:04.748Z,2.27
2019-06-01T06:59:11.723Z,2.13
2019-06-01T07:00:18.582Z,2.20
2019-06-01T07:01:24.783Z,1.90
2019-06-01T07:02:30.593Z,2.10
2019-06-01T07:03:35.661Z,1.93
2019-06-01T07:04:41.245Z,2.13
2019-06-01T07:05:46.314Z,2.70
2019-06-01T07:06:51.961Z,1.77
2019-06-01T07:07:57.094Z,2.33
2019-06-01T07:09:03.033Z,2.40
2019-06-01T07:10:08.669Z,1.90
2019-06-01T07:11:14.297Z,2.10
2019-06-01T07:12:19.382Z,2.40
2019-06-01T07:13:26.437Z,1.90
2019-06-01T07:14:33.132Z,1.93
2019-06-01T07:15:38.807Z,1.75
2019-06-01T07:16:43.897Z,2.23
2019-06-01T07:17:49.667Z,2.30
2019-06-01T07:18:55.836Z,2.80
2019-06-01T07:20:01.534Z,2.17
2019-06-01T07:21:06.881Z,2.30
2019-06-01T07:22:12.581Z,2.30
2019-06-01T07:23:17.643Z,1.87
2019-06-01T07:24:23.911Z,1.90
2019-06-01T07:25:29.255Z,1.60
2019-06-01T07:26:34.951Z,1.60
2019-06-01T07:27:40.082Z,2.17
2019-06-01T07:28:45.672Z,2.03
2019-06-01T07:29:50.708Z,1.40
2019-06-01T07:30:56.373Z,1.77
2019-06-01T07:32:01.391Z,1.40
2019-06-01T07:33:07.118Z,1.57
2019-06-01T07:34:29.144Z,1.43
2019-06-01T07:35:20.493Z,1.77
2019-06-01T07:36:26.712Z,1.43
2019-06-01T07:37:33.560Z,1.30
2019-06-01T07:38:38.672Z,1.30
2019-06-01T07:39:44.380Z,1.10
2019-06-01T07:40:49.489Z,1.30
2019-06-01T07:41:55.378Z,1.53
2019-06-01T07:43:00.519Z,1.30
2019-06-01T07:44:06.820Z,1.30
2019-06-01T07:45:12.020Z,1.23
2019-06-01T07:46:17.654Z,1.47
2019-06-01T07:47:22.871Z,1.40
2019-06-01T07:48:33.458Z,1.30
2019-06-01T07:49:38.644Z,1.50
2019-06-01T07:50:44.410Z,1.50
2019-06-01T07:51:49.708Z,1.50
2019-06-01T07:52:55.469Z,1.47
2019-06-01T07:54:01.679Z,1.30
2019-06-01T07:55:07.341Z,1.60
2019-06-01T07:56:12.623Z,1.37
2019-06-01T07:57:18.332Z,1.37
2019-06-01T07:58:24.646Z,1.37
2019-06-01T07:59:30.600Z,1.20
2019-06-01T08:00:36.157Z,1.40
2019-06-01T08:01:41.855Z,1.10
2019-06-01T08:02:46.998Z,1.40
2019-06-01T08:03:52.606Z,1.20
2019-06-01T08:04:57.707Z,1.50
2019-06-01T08:06:03.390Z,1.03
2019-06-01T08:07:08.567Z,1.07
2019-06-01T08:08:14.278Z,1.10
2019-06-01T08:09:19.283Z,1.30
2019-06-01T08:10:26.115Z,1.10
2019-06-01T08:11:33.517Z,0.80
2019-06-01T08:12:39.023Z,0.90
2019-06-01T08:13:44.316Z,0.93
2019-06-01T08:14:49.946Z,1.20
2019-06-01T08:15:55.953Z,1.07
2019-06-01T08:17:01.718Z,1.00
2019-06-01T08:18:06.852Z,1.27
2019-06-01T08:19:12.511Z,1.30
2019-06-01T08:20:17.584Z,0.93
2019-06-01T08:21:24.011Z,0.90
2019-06-01T08:22:30.077Z,1.10
2019-06-01T08:23:35.949Z,1.23
2019-06-01T08:24:41.117Z,1.20
2019-06-01T08:25:46.800Z,1.40
2019-06-01T08:26:51.870Z,1.30
2019-06-01T08:27:57.568Z,1.30
2019-06-01T08:29:02.682Z,1.10
2019-06-01T08:30:08.730Z,1.17
2019-06-01T08:31:13.818Z,1.10
2019-06-01T08:32:19.823Z,1.27
2019-06-01T08:33:28.399Z,1.20
2019-06-01T08:34:33.126Z,1.23
2019-06-01T08:35:38.399Z,1.30
2019-06-01T08:36:44.316Z,1.00
2019-06-01T08:37:49.456Z,1.20
2019-06-01T08:38:56.252Z,1.20
2019-06-01T08:40:01.413Z,1.23
2019-06-01T08:41:08.246Z,1.20
2019-06-01T08:42:13.404Z,1.23
2019-06-01T08:43:19.141Z,0.90
2019-06-01T08:44:25.444Z,1.20
2019-06-01T08:45:35.376Z,1.10
2019-06-01T08:46:38.049Z,1.00
2019-06-01T08:47:43.653Z,1.00
2019-06-01T08:48:48.740Z,1.00
2019-06-01T08:49:54.361Z,1.10
2019-06-01T08:50:59.480Z,1.10
2019-06-01T08:52:05.213Z,1.00
2019-06-01T08:53:10.244Z,0.97
2019-06-01T08:54:16.026Z,0.80
2019-06-01T08:55:24.161Z,1.23
2019-06-01T08:56:30.288Z,1.20
2019-06-01T08:57:35.529Z,1.00
2019-06-01T08:58:41.116Z,1.33
2019-06-01T08:59:46.285Z,1.10
2019-06-01T09:00:54.829Z,1.10
2019-06-01T09:02:00.185Z,1.30
2019-06-01T09:03:05.906Z,1.10
2019-06-01T09:04:10.960Z,1.10
2019-06-01T09:05:24.178Z,1.33
2019-06-01T09:06:24.795Z,1.40
2019-06-01T09:07:31.049Z,1.10
2019-06-01T09:08:36.337Z,1.20
2019-06-01T09:09:42.004Z,1.20
2019-06-01T09:10:47.059Z,1.10
2019-06-01T09:11:52.672Z,1.20
2019-06-01T09:12:57.763Z,1.10
2019-06-01T09:14:03.374Z,1.10
2019-06-01T09:15:09.921Z,1.00
2019-06-01T09:16:15.597Z,1.20
2019-06-01T09:17:20.708Z,1.27
2019-06-01T09:18:29.834Z,1.20
2019-06-01T09:19:35.731Z,1.23
2019-06-01T09:20:41.504Z,1.40
2019-06-01T09:21:46.611Z,1.10
2019-06-01T09:22:52.317Z,1.10
2019-06-01T09:23:57.362Z,0.97
2019-06-01T09:25:03.024Z,1.50
2019-06-01T09:26:11.569Z,1.20
2019-06-01T09:27:17.381Z,1.37
2019-06-01T09:28:24.038Z,1.10
2019-06-01T09:29:30.146Z,1.60
2019-06-01T09:30:36.250Z,1.40
2019-06-01T09:31:42.121Z,1.37
2019-06-01T09:32:47.130Z,1.30
2019-06-01T09:33:52.739Z,1.30
2019-06-01T09:34:57.851Z,1.50
2019-06-01T09:36:03.586Z,1.30
2019-06-01T09:37:08.800Z,1.40
2019-06-01T09:38:14.513Z,1.10
2019-06-01T09:39:19.609Z,1.37
2019-06-01T09:40:27.294Z,1.03
2019-06-01T09:41:32.616Z,1.40
2019-06-01T09:42:38.359Z,1.33
2019-06-01T09:43:43.588Z,1.10
2019-06-01T09:44:49.226Z,1.20
2019-06-01T09:45:54.285Z,1.30
2019-06-01T09:47:00.056Z,1.33
2019-06-01T09:48:05.168Z,1.10
2019-06-01T09:49:10.852Z,1.30
2019-06-01T09:50:16.218Z,1.17
2019-06-01T09:51:22.302Z,1.20
2019-06-01T09:52:27.474Z,1.07
2019-06-01T09:53:34.453Z,1.10
2019-06-01T09:54:39.948Z,1.07
2019-06-01T09:55:45.564Z,0.80
2019-06-01T09:56:50.625Z,1.00
2019-06-01T09:57:56.464Z,1.03
2019-06-01T09:59:01.489Z,1.10
2019-06-01T10:00:08.457Z,1.10
2019-06-01T10:01:14.657Z,1.13
2019-06-01T10:02:20.264Z,1.17
2019-06-01T10:03:25.342Z,1.20
2019-06-01T10:04:32.203Z,1.13
2019-06-01T10:05:38.526Z,1.00
2019-06-01T10:06:44.343Z,1.20
2019-06-01T10:07:49.750Z,0.90
2019-06-01T10:08:55.420Z,0.97
2019-06-01T10:10:00.457Z,1.20
2019-06-01T10:11:06.279Z,1.00
2019-06-01T10:12:11.377Z,0.87
2019-06-01T10:13:17.073Z,1.10
2019-06-01T10:14:22.200Z,1.00
2019-06-01T10:15:27.866Z,1.03
2019-06-01T10:16:32.898Z,0.90
2019-06-01T10:17:39.080Z,1.00
2019-06-01T10:18:45.378Z,0.93
2019-06-01T10:19:50.965Z,0.97
2019-06-01T10:20:56.044Z,1.13
2019-06-01T10:22:01.772Z,0.90
2019-06-01T10:23:06.869Z,1.40
2019-06-01T10:24:12.632Z,1.10
2019-06-01T10:25:17.637Z,1.33
2019-06-01T10:26:23.260Z,1.20
2019-06-01T10:27:28.266Z,1.00
2019-06-01T10:28:35.492Z,1.00
2019-06-01T10:29:40.955Z,1.20
2019-06-01T10:30:46.557Z,1.05
2019-06-01T10:31:51.589Z,1.02
2019-06-01T10:32:57.185Z,1.17
2019-06-01T10:34:02.443Z,0.82
2019-06-01T10:35:08.508Z,0.90
2019-06-01T10:36:20.547Z,1.17
2019-06-01T10:37:20.956Z,0.98
2019-06-01T10:38:26.055Z,1.00
2019-06-01T10:39:31.697Z,0.95
2019-06-01T10:40:37.604Z,1.30
2019-06-01T10:41:43.240Z,1.00
2019-06-01T10:42:48.386Z,0.90
2019-06-01T10:43:54.076Z,1.00
2019-06-01T10:44:59.163Z,0.98
2019-06-01T10:46:04.791Z,0.82
2019-06-01T10:47:09.966Z,1.00
2019-06-01T10:48:15.559Z,1.02
2019-06-01T10:49:20.581Z,1.00
2019-06-01T10:50:26.157Z,0.80
2019-06-01T10:51:32.056Z,0.90
2019-06-01T10:52:38.443Z,1.00
2019-06-01T10:53:45.074Z,1.10
2019-06-01T10:54:50.715Z,1.20
2019-06-01T10:55:56.989Z,1.40
2019-06-01T10:57:02.643Z,1.35
2019-06-01T10:58:08.719Z,1.20
2019-06-01T10:59:14.495Z,1.10
2019-06-01T11:00:37.136Z,1.65
2019-06-01T11:01:28.415Z,0.95
2019-06-01T11:02:34.791Z,1.05
2019-06-01T11:03:40.932Z,1.05
2019-06-01T11:04:46.271Z,1.10
2019-06-01T11:05:52.029Z,1.20
2019-06-01T11:06:57.339Z,1.40
2019-06-01T11:08:03.424Z,1.20
2019-06-01T11:09:09.352Z,1.45
2019-06-01T11:10:15.398Z,1.10
2019-06-01T11:11:20.603Z,1.17
2019-06-01T11:12:26.413Z,1.20
2019-06-01T11:13:32.956Z,1.20
2019-06-01T11:14:39.090Z,1.40
2019-06-01T11:15:45.431Z,1.30
2019-06-01T11:16:56.017Z,1.37
2019-06-01T11:17:57.865Z,1.40
2019-06-01T11:19:03.470Z,1.40
2019-06-01T11:20:09.162Z,1.25
2019-06-01T11:21:14.836Z,1.27
2019-06-01T11:22:19.951Z,1.10
2019-06-01T11:23:25.586Z,1.10
2019-06-01T11:24:30.634Z,1.40
2019-06-01T11:25:37.515Z,1.35
2019-06-01T11:26:43.874Z,1.12
2019-06-01T11:27:49.724Z,1.10
2019-06-01T11:28:54.772Z,1.20
2019-06-01T11:30:01.452Z,1.20
2019-06-01T11:31:07.545Z,1.10
2019-06-01T11:32:13.226Z,1.05
2019-06-01T11:33:18.308Z,1.15
2019-06-01T11:34:24.005Z,1.42
2019-06-01T11:35:29.104Z,1.02
2019-06-01T11:36:36.116Z,1.50
2019-06-01T11:37:42.395Z,1.40
2019-06-01T11:38:48.356Z,1.27
2019-06-01T11:39:53.418Z,1.10
2019-06-01T11:40:59.105Z,1.17
2019-06-01T11:42:04.201Z,1.20
2019-06-01T11:43:09.908Z,1.40
2019-06-01T11:44:15.028Z,1.20
2019-06-01T11:45:20.752Z,1.22
2019-06-01T11:46:25.786Z,1.27
2019-06-01T11:47:32.440Z,1.00
2019-06-01T11:48:39.097Z,1.40
2019-06-01T11:49:45.537Z,1.15
2019-06-01T11:50:50.639Z,1.10
2019-06-01T11:51:56.336Z,1.20
2019-06-01T11:53:01.424Z,1.32
2019-06-01T11:54:07.025Z,1.22
2019-06-01T11:55:12.603Z,1.10
2019-06-01T11:56:18.308Z,1.10
2019-06-01T11:57:23.398Z,1.07
2019-06-01T11:58:29.855Z,1.10
2019-06-01T11:59:35.277Z,1.20
2019-06-01T12:00:41.541Z,1.40
2019-06-01T12:01:46.772Z,1.20
2019-06-01T12:02:52.466Z,0.90
2019-06-01T12:03:57.607Z,1.22
2019-06-01T12:05:03.337Z,1.00
2019-06-01T12:06:08.440Z,1.20
2019-06-01T12:07:17.947Z,1.32
2019-06-01T12:08:20.914Z,1.25
2019-06-01T12:09:26.578Z,1.27
2019-06-01T12:10:31.628Z,1.12
2019-06-01T12:11:37.871Z,0.90
2019-06-01T12:12:44.201Z,1.50
2019-06-01T12:13:50.093Z,1.32
2019-06-01T12:14:55.181Z,0.80
2019-06-01T12:16:00.842Z,1.30
2019-06-01T12:17:05.985Z,1.25
2019-06-01T12:18:11.664Z,1.07
2019-06-01T12:19:16.811Z,1.10
2019-06-01T12:20:22.446Z,1.30
2019-06-01T12:21:27.550Z,1.40
2019-06-01T12:22:33.137Z,1.00
2019-06-01T12:23:38.961Z,1.27
2019-06-01T12:24:45.075Z,1.00
2019-06-01T12:25:50.327Z,1.20
2019-06-01T12:26:55.934Z,1.40
2019-06-01T12:28:00.983Z,1.10
2019-06-01T12:29:06.663Z,1.20
2019-06-01T12:30:13.093Z,1.10
2019-06-01T12:31:18.822Z,1.20
2019-06-01T12:32:23.997Z,1.30
2019-06-01T12:33:29.721Z,1.15
2019-06-01T12:34:34.735Z,1.12
2019-06-01T12:35:40.385Z,1.00
2019-06-01T12:36:46.437Z,0.90
2019-06-01T12:38:05.631Z,0.90
2019-06-01T12:38:58.956Z,0.98
2019-06-01T12:40:07.614Z,1.10
2019-06-01T12:41:11.322Z,1.22
2019-06-01T12:42:17.110Z,1.32
2019-06-01T12:43:22.315Z,1.10
2019-06-01T12:44:28.102Z,1.22
2019-06-01T12:45:33.143Z,1.15
2019-06-01T12:46:39.833Z,1.10
2019-06-01T12:47:49.573Z,1.10
2019-06-01T12:48:53.607Z,0.90
2019-06-01T12:49:58.629Z,0.80
2019-06-01T12:51:04.262Z,1.15
2019-06-01T12:52:09.345Z,1.00
2019-06-01T12:53:15.011Z,1.05
2019-06-01T12:54:20.937Z,1.02
2019-06-01T12:55:26.737Z,0.80
2019-06-01T12:56:31.917Z,1.00
2019-06-01T12:57:37.547Z,1.12
2019-06-01T12:58:43.843Z,1.05
2019-06-01T12:59:51.061Z,1.10
2019-06-01T13:00:56.291Z,1.20
2019-06-01T13:02:01.912Z,1.12
2019-06-01T13:03:07.911Z,0.95
2019-06-01T13:04:13.848Z,1.07
2019-06-01T13:05:18.903Z,1.00
2019-06-01T13:06:24.585Z,0.90
2019-06-01T13:07:29.705Z,0.90
2019-06-01T13:08:35.464Z,0.95
2019-06-01T13:09:41.902Z,0.90
2019-06-01T13:10:47.719Z,1.10
2019-06-01T13:11:52.970Z,1.00
2019-06-01T13:12:58.547Z,0.95
2019-06-01T13:14:04.432Z,1.10
2019-06-01T13:15:11.460Z,1.10
2019-06-01T13:16:16.600Z,1.10
2019-06-01T13:17:22.329Z,1.10
2019-06-01T13:18:27.362Z,1.10
2019-06-01T13:19:33.029Z,0.90
2019-06-01T13:20:38.117Z,1.12
2019-06-01T13:21:45.318Z,1.17
2019-06-01T13:22:51.851Z,0.82
2019-06-01T13:23:57.635Z,1.10
2019-06-01T13:25:02.662Z,0.90
2019-06-01T13:26:09.738Z,0.93
2019-06-01T13:27:14.840Z,1.00
2019-06-01T13:28:28.933Z,0.90
2019-06-01T13:29:27.332Z,1.30
2019-06-01T13:30:33.029Z,1.10
2019-06-01T13:31:38.074Z,0.90
2019-06-01T13:32:44.420Z,0.90
2019-06-01T13:33:51.586Z,1.27
2019-06-01T13:34:57.164Z,1.10
2019-06-01T13:36:02.280Z,0.95
2019-06-01T13:37:07.968Z,1.07
2019-06-01T13:38:13.069Z,1.10
2019-06-01T13:39:18.781Z,0.95
2019-06-01T13:40:23.828Z,0.90
2019-06-01T13:41:29.589Z,1.10
2019-06-01T13:42:34.705Z,0.70
2019-06-01T13:43:40.356Z,0.98
2019-06-01T13:44:45.500Z,0.90
2019-06-01T13:45:52.196Z,0.90
2019-06-01T13:46:57.417Z,1.00
2019-06-01T13:48:03.050Z,1.05
2019-06-01T13:49:08.166Z,0.82
2019-06-01T13:50:14.073Z,1.10
2019-06-01T13:51:19.112Z,1.10
2019-06-01T13:52:24.826Z,0.90
2019-06-01T13:53:29.929Z,0.88
2019-06-01T13:54:35.802Z,1.20
2019-06-01T13:55:40.980Z,0.95
2019-06-01T13:56:46.834Z,0.90
2019-06-01T13:57:52.467Z,0.90
2019-06-01T13:58:58.405Z,1.10
2019-06-01T14:00:03.530Z,0.95
2019-06-01T14:01:09.291Z,1.00
2019-06-01T14:02:14.368Z,1.00
2019-06-01T14:03:20.953Z,1.30
2019-06-01T14:04:26.078Z,1.05
2019-06-01T14:05:31.662Z,0.90
2019-06-01T14:06:36.731Z,1.00
2019-06-01T14:07:42.432Z,1.15
2019-06-01T14:08:47.477Z,1.00
2019-06-01T14:09:55.336Z,1.00
2019-06-01T14:11:01.543Z,1.27
2019-06-01T14:12:09.627Z,1.07
2019-06-01T14:13:15.402Z,0.95
2019-06-01T14:14:23.115Z,1.22
2019-06-01T14:15:29.284Z,1.35
2019-06-01T14:16:36.293Z,1.15
2019-06-01T14:17:41.687Z,1.05
2019-06-01T14:18:47.725Z,1.10
2019-06-01T14:19:53.847Z,0.88
2019-06-01T14:20:59.701Z,1.00
2019-06-01T14:22:07.304Z,1.02
2019-06-01T14:23:13.068Z,1.00
2019-06-01T14:24:26.819Z,0.80
2019-06-01T14:25:33.312Z,0.95
2019-06-01T14:26:41.737Z,0.90
2019-06-01T14:27:50.193Z,1.02
2019-06-01T14:29:01.372Z,0.90
2019-06-01T14:30:10.482Z,0.80
2019-06-01T14:31:16.743Z,0.90
2019-06-01T14:32:26.485Z,1.05
2019-06-01T14:33:33.129Z,1.10
2019-06-01T14:34:38.821Z,0.90
2019-06-01T14:35:44.046Z,0.90
2019-06-01T14:36:50.542Z,0.90
2019-06-01T14:37:59.045Z,1.02